Time;durP1;ratioP1;P1;durP2;ratioP2;P2;SDS_P1;SDS_P2;PMS_P1;PMS_P2;Temp;Humidity;BMP_temperature;BMP_pressure;BME280_temperature;BME280_humidity;BME280_pressure;Samples;Min_cycle;Max_cycle;Signal;HPM_P1;HPM_P2
2021/12/22 00:01:52;;;;;;;2.80;1.70;;;21.00;47.20;;;;;;5012394;28;20121;-70
2021/12/22 00:04:22;;;;;;;4.07;1.73;;;21.00;47.20;;;;;;5014661;28;20034;-68
2021/12/22 00:06:48;;;;;;;3.30;1.80;;;21.00;47.20;;;;;;5011477;28;20037;-69
2021/12/22 00:09:14;;;;;;;2.80;1.60;;;21.00;47.20;;;;;;5016168;28;20054;-69
2021/12/22 00:11:40;;;;;;;4.28;1.92;;;21.00;47.10;;;;;;5016386;28;21137;-66
2021/12/22 00:14:05;;;;;;;3.17;1.73;;;21.00;47.10;;;;;;5014606;28;20093;-69
2021/12/22 00:16:31;;;;;;;2.35;1.60;;;21.00;47.10;;;;;;5014643;28;20041;-70
2021/12/22 00:18:57;;;;;;;5.32;1.70;;;20.90;47.00;;;;;;5016053;28;20057;-68
2021/12/22 00:21:23;;;;;;;2.88;1.63;;;21.00;47.80;;;;;;5015334;28;20041;-68
2021/12/22 00:23:48;;;;;;;3.83;1.63;;;21.00;47.00;;;;;;5031280;28;20038;-70
2021/12/22 00:26:15;;;;;;;3.00;1.80;;;21.00;47.00;;;;;;5017513;28;20108;-70
2021/12/22 00:28:41;;;;;;;3.15;1.73;;;21.00;46.90;;;;;;5011478;28;20060;-70
2021/12/22 00:31:12;;;;;;;3.63;1.55;;;21.00;46.90;;;;;;5031738;28;20053;-69
2021/12/22 00:33:46;;;;;;;3.92;1.73;;;21.00;46.90;;;;;;5014453;28;20045;-70
2021/12/22 00:36:13;;;;;;;4.10;1.50;;;20.90;46.80;;;;;;5013537;28;20237;-69
2021/12/22 00:38:39;;;;;;;2.53;1.55;;;20.90;46.80;;;;;;5016461;28;20042;-71
2021/12/22 00:41:05;;;;;;;3.90;1.70;;;20.90;46.80;;;;;;5012159;28;20057;-70
2021/12/22 00:43:31;;;;;;;4.68;1.90;;;21.00;46.80;;;;;;5014075;28;20697;-71
2021/12/22 00:45:56;;;;;;;2.85;1.63;;;20.90;46.70;;;;;;5012181;28;20053;-69
2021/12/22 00:48:22;;;;;;;2.95;1.75;;;20.90;46.70;;;;;;5015957;28;20128;-68
2021/12/22 00:50:48;;;;;;;3.15;1.77;;;20.90;46.70;;;;;;5010046;28;20057;-71
2021/12/22 00:53:14;;;;;;;3.55;1.73;;;20.90;46.60;;;;;;5012194;28;20408;-68
2021/12/22 00:55:40;;;;;;;3.50;1.70;;;20.90;46.60;;;;;;5012200;28;20038;-70
2021/12/22 00:58:06;;;;;;;2.75;1.38;;;20.90;46.60;;;;;;5015612;28;20171;-69
2021/12/22 01:00:32;;;;;;;3.22;1.52;;;20.90;46.60;;;;;;5013193;28;20388;-68
2021/12/22 01:02:59;;;;;;;2.30;1.65;;;20.90;46.60;;;;;;5009877;28;20049;-69
2021/12/22 01:05:26;;;;;;;3.35;1.77;;;20.90;46.60;;;;;;5012048;28;20034;-71
2021/12/22 01:07:51;;;;;;;2.15;1.65;;;20.90;46.60;;;;;;5010990;28;20042;-71
2021/12/22 01:10:25;;;;;;;3.17;1.50;;;20.90;46.50;;;;;;5029362;28;20059;-71
2021/12/22 01:12:53;;;;;;;2.78;1.70;;;20.90;46.50;;;;;;5014273;28;20129;-70
2021/12/22 01:15:19;;;;;;;;;;;20.90;46.50;;;;;;5014006;28;20045;-71
2021/12/22 01:17:48;;;;;;;3.50;1.60;;;20.90;46.30;;;;;;5013936;28;19932;-69
2021/12/22 01:20:22;;;;;;;3.53;1.50;;;20.90;46.40;;;;;;5012939;28;20604;-71
2021/12/22 01:22:49;;;;;;;3.22;1.50;;;20.90;46.30;;;;;;5008803;28;20124;-70
2021/12/22 01:25:21;;;;;;;1.90;1.35;;;20.90;47.10;;;;;;5027523;28;20069;-71
2021/12/22 01:27:47;;;;;;;2.47;1.38;;;20.90;46.30;;;;;;5015725;28;20049;-71
2021/12/22 01:30:19;;;;;;;3.10;1.75;;;20.90;46.30;;;;;;5014972;28;20071;-71
2021/12/22 01:32:45;;;;;;;3.42;1.50;;;20.90;47.00;;;;;;5010279;28;20069;-69
2021/12/22 01:35:12;;;;;;;3.20;1.48;;;20.90;46.30;;;;;;5013624;28;20080;-70
2021/12/22 01:37:38;;;;;;;1.80;1.33;;;20.90;46.30;;;;;;5013456;28;20038;-69
2021/12/22 01:40:05;;;;;;;4.00;1.60;;;20.90;46.30;;;;;;5010077;28;20045;-69
2021/12/22 01:42:34;;;;;;;3.20;1.65;;;20.90;46.30;;;;;;5014725;28;20045;-67
2021/12/22 01:50:39;;;;;;;4.75;1.85;;;20.90;46.20;;;;;;5011977;28;20128;-71
2021/12/22 01:53:25;;;;;;;2.95;1.60;;;20.90;46.10;;;;;;5012254;28;20045;-71
2021/12/22 01:56:05;;;;;;;2.88;1.48;;;20.90;46.20;;;;;;5016286;28;20091;-71
2021/12/22 01:58:37;;;;;;;2.92;1.60;;;20.90;46.10;;;;;;5019806;28;20038;-65
2021/12/22 02:01:05;;;;;;;3.58;1.50;;;20.90;46.10;;;;;;5014783;28;20042;-71
2021/12/22 02:03:31;;;;;;;3.10;1.80;;;20.90;46.10;;;;;;5015379;28;20042;-68
2021/12/22 02:05:57;;;;;;;2.53;1.40;;;20.80;46.00;;;;;;5014758;28;20049;-69
2021/12/22 02:08:23;;;;;;;3.88;1.58;;;20.90;46.00;;;;;;5014142;28;20045;-70
2021/12/22 02:10:49;;;;;;;4.25;2.10;;;20.90;46.00;;;;;;5013676;28;20033;-70
2021/12/22 02:13:21;;;;;;;1.80;1.50;;;20.90;46.00;;;;;;5032264;28;20601;-71
2021/12/22 02:15:48;;;;;;;3.38;1.45;;;20.90;46.00;;;;;;5011271;28;20053;-70
2021/12/22 02:18:19;;;;;;;3.33;1.60;;;20.90;45.90;;;;;;5000026;28;20056;-70
2021/12/22 02:20:50;;;;;;;4.10;1.63;;;20.90;45.90;;;;;;5016010;28;20124;-70
2021/12/22 02:23:16;;;;;;;2.50;1.55;;;20.90;45.80;;;;;;4997623;28;20080;-70
2021/12/22 02:25:49;;;;;;;3.22;1.52;;;20.90;45.90;;;;;;5029998;28;20104;-71
2021/12/22 02:28:23;;;;;;;3.08;1.63;;;20.90;45.80;;;;;;5016540;28;20043;-70
2021/12/22 02:30:50;;;;;;;2.78;1.70;;;20.80;45.70;;;;;;5015112;28;20041;-71
2021/12/22 02:33:34;;;;;;;2.40;1.60;;;20.90;45.80;;;;;;5013352;28;20064;-71
2021/12/22 02:38:28;;;;;;;2.03;1.42;;;20.90;45.80;;;;;;5021050;28;20062;-70
2021/12/22 02:40:54;;;;;;;2.20;1.40;;;20.80;45.70;;;;;;5017260;28;20053;-70
2021/12/22 02:43:22;;;;;;;1.63;1.40;;;20.80;45.70;;;;;;5014364;28;20754;-69
2021/12/22 02:45:50;;;;;;;2.13;1.58;;;20.90;45.70;;;;;;5016352;28;20111;-70
2021/12/22 02:48:15;;;;;;;1.85;1.50;;;20.80;45.70;;;;;;5014689;28;20046;-71
2021/12/22 02:50:41;;;;;;;2.67;1.63;;;20.80;45.60;;;;;;5017137;28;20044;-70
2021/12/22 02:53:14;;;;;;;1.98;1.35;;;20.80;45.60;;;;;;5019270;28;20810;-71
2021/12/22 02:55:57;;;;;;;2.67;1.60;;;20.80;45.60;;;;;;5013099;28;20038;-70
2021/12/22 02:58:46;;;;;;;2.72;1.70;;;20.80;45.60;;;;;;5034653;28;20045;-68
2021/12/22 03:04:01;;;;;;;2.63;1.55;;;20.80;45.50;;;;;;4995248;28;20037;-70
2021/12/22 03:06:56;;;;;;;1.98;1.30;;;20.80;45.50;;;;;;5018101;28;20050;-68
2021/12/22 03:09:16;;;;;;;2.42;1.80;;;20.80;45.50;;;;;;5016947;28;20386;-70
2021/12/22 03:11:42;;;;;;;2.33;1.70;;;20.80;45.40;;;;;;5016581;28;20080;-71
2021/12/22 03:14:07;;;;;;;2.22;1.50;;;20.80;45.40;;;;;;5016940;28;20041;-71
2021/12/22 03:16:33;;;;;;;3.13;1.40;;;20.80;45.40;;;;;;5015237;28;20046;-70
2021/12/22 03:19:00;;;;;;;3.95;1.58;;;20.90;45.40;;;;;;5016253;28;20145;-67
2021/12/22 03:21:25;;;;;;;1.98;1.55;;;20.80;45.30;;;;;;5008222;28;20054;-70
2021/12/22 03:23:53;;;;;;;2.63;1.50;;;20.80;45.30;;;;;;5018742;28;20078;-70
2021/12/22 03:26:22;;;;;;;2.85;1.40;;;20.80;45.20;;;;;;5016123;28;20414;-71
2021/12/22 03:28:50;;;;;;;2.33;1.73;;;20.80;45.20;;;;;;5017661;28;20089;-66
2021/12/22 03:31:15;;;;;;;2.15;1.60;;;20.80;45.20;;;;;;5016576;28;20042;-69
2021/12/22 03:33:42;;;;;;;2.45;1.63;;;20.80;45.20;;;;;;5016230;28;20080;-71
2021/12/22 03:36:08;;;;;;;2.22;1.38;;;20.80;45.20;;;;;;5015504;28;20046;-71
2021/12/22 03:38:35;;;;;;;2.85;1.63;;;20.80;45.20;;;;;;5012206;28;20073;-69
2021/12/22 03:41:02;;;;;;;2.70;1.70;;;20.80;45.10;;;;;;5014322;28;20468;-69
2021/12/22 03:43:28;;;;;;;2.42;1.80;;;20.80;45.20;;;;;;5017004;28;20067;-70
2021/12/22 03:45:54;;;;;;;3.10;1.80;;;20.80;45.10;;;;;;5014146;28;20456;-70
2021/12/22 03:48:20;;;;;;;3.17;2.00;;;20.80;45.00;;;;;;5012650;28;20049;-70
2021/12/22 03:50:46;;;;;;;3.75;1.80;;;20.80;45.00;;;;;;5012566;28;20046;-69
2021/12/22 03:53:11;;;;;;;3.40;1.70;;;20.80;45.00;;;;;;5020736;28;20045;-72
2021/12/22 03:55:38;;;;;;;3.83;2.20;;;20.80;45.00;;;;;;5015810;28;20116;-67
2021/12/22 03:58:04;;;;;;;3.17;1.80;;;20.80;44.90;;;;;;5016963;28;20048;-70
2021/12/22 04:00:30;;;;;;;2.90;1.77;;;20.80;44.90;;;;;;5014277;28;20724;-70
2021/12/22 04:02:57;;;;;;;3.15;1.88;;;20.80;44.80;;;;;;5015596;28;20042;-69
2021/12/22 04:05:23;;;;;;;3.47;1.73;;;20.80;44.80;;;;;;5010175;28;20487;-67
2021/12/22 04:07:48;;;;;;;2.50;1.80;;;20.80;44.80;;;;;;5012841;28;20128;-72
2021/12/22 04:10:22;;;;;;;2.92;1.90;;;20.80;44.80;;;;;;5024770;28;20046;-71
2021/12/22 04:12:50;;;;;;;2.53;1.65;;;20.80;44.80;;;;;;5021866;28;20132;-72
2021/12/22 04:15:16;;;;;;;3.38;1.88;;;20.80;44.70;;;;;;5014421;28;20052;-71
2021/12/22 04:17:42;;;;;;;2.80;2.10;;;20.80;44.70;;;;;;5011984;28;20088;-70
2021/12/22 04:20:09;;;;;;;3.00;2.10;;;20.80;44.70;;;;;;5017801;28;20069;-72
2021/12/22 04:22:36;;;;;;;2.53;2.05;;;20.80;44.70;;;;;;5015774;28;20037;-69
2021/12/22 04:25:04;;;;;;;3.03;2.08;;;20.80;44.60;;;;;;5012717;28;20085;-70
2021/12/22 04:27:30;;;;;;;3.22;2.20;;;20.70;44.50;;;;;;5016748;28;20049;-72
2021/12/22 04:29:55;;;;;;;3.30;2.20;;;20.80;44.60;;;;;;5010308;28;20042;-73
2021/12/22 04:32:21;;;;;;;3.10;2.10;;;20.80;44.60;;;;;;5017991;28;20046;-71
2021/12/22 04:34:46;;;;;;;4.18;2.25;;;20.80;44.50;;;;;;5016951;28;20049;-69
2021/12/22 04:37:12;;;;;;;3.92;2.17;;;20.80;44.40;;;;;;5018978;28;20041;-70
2021/12/22 04:39:37;;;;;;;3.85;2.28;;;20.80;44.40;;;;;;5020558;28;20045;-72
2021/12/22 04:42:03;;;;;;;3.78;2.05;;;20.80;44.40;;;;;;5013814;28;20037;-70
2021/12/22 04:44:29;;;;;;;3.63;2.15;;;20.80;44.40;;;;;;5015031;28;20045;-66
2021/12/22 04:46:54;;;;;;;3.88;2.35;;;20.80;44.30;;;;;;5013051;28;20042;-72
2021/12/22 04:49:20;;;;;;;3.45;2.25;;;20.80;44.30;;;;;;5019281;28;20455;-70
2021/12/22 04:51:51;;;;;;;3.40;2.20;;;20.80;44.30;;;;;;5012071;28;20044;-71
2021/12/22 04:54:32;;;;;;;2.75;1.92;;;20.80;44.30;;;;;;5015543;28;20128;-72
2021/12/22 04:56:58;;;;;;;2.72;2.30;;;20.80;44.20;;;;;;5014308;28;20049;-72
2021/12/22 04:59:24;;;;;;;3.63;2.30;;;20.80;44.20;;;;;;5027283;28;20040;-72
2021/12/22 05:01:50;;;;;;;5.07;2.42;;;20.80;44.10;;;;;;5017322;28;20045;-72
2021/12/22 05:04:16;;;;;;;3.45;2.55;;;20.80;44.10;;;;;;5016144;28;20042;-72
2021/12/22 05:06:42;;;;;;;4.20;2.70;;;20.80;44.00;;;;;;5008098;28;20044;-70
2021/12/22 05:09:07;;;;;;;4.20;2.42;;;20.80;44.00;;;;;;5010079;28;20140;-70
2021/12/22 05:11:34;;;;;;;3.15;2.58;;;20.80;44.00;;;;;;5017549;28;20125;-71
2021/12/22 05:14:02;;;;;;;3.33;2.25;;;20.80;44.00;;;;;;5017649;28;20073;-70
2021/12/22 05:16:28;;;;;;;2.70;2.28;;;20.80;44.00;;;;;;5013386;28;20037;-71
2021/12/22 05:18:59;;;;;;;4.28;2.38;;;20.80;44.00;;;;;;5011812;28;20056;-66
2021/12/22 05:21:26;;;;;;;3.08;2.40;;;20.80;44.00;;;;;;5012553;28;20049;-70
2021/12/22 05:23:53;;;;;;;4.32;2.63;;;20.80;43.90;;;;;;5026757;28;20156;-73
2021/12/22 05:26:20;;;;;;;4.03;2.38;;;20.80;43.90;;;;;;5017649;28;20045;-72
2021/12/22 05:28:46;;;;;;;3.17;2.33;;;20.70;43.90;;;;;;5014687;28;20046;-73
2021/12/22 05:31:12;;;;;;;3.38;2.50;;;20.80;44.00;;;;;;5014155;28;20095;-73
2021/12/22 05:33:39;;;;;;;3.53;2.47;;;20.70;44.00;;;;;;5016058;28;20645;-72
2021/12/22 05:36:05;;;;;;;3.55;2.40;;;20.70;44.00;;;;;;5015606;28;20128;-73
2021/12/22 05:38:31;;;;;;;3.28;2.40;;;20.70;44.00;;;;;;5012989;28;20172;-71
2021/12/22 05:40:56;;;;;;;3.28;2.03;;;20.70;44.00;;;;;;5014448;28;20128;-69
2021/12/22 05:43:24;;;;;;;3.65;2.45;;;20.70;44.00;;;;;;5019057;28;20187;-72
2021/12/22 05:45:49;;;;;;;3.80;2.47;;;20.70;44.00;;;;;;5013910;28;20457;-72
2021/12/22 05:48:15;;;;;;;2.78;1.98;;;20.70;44.00;;;;;;5013083;28;20045;-71
2021/12/22 05:50:46;;;;;;;3.67;2.55;;;20.70;44.00;;;;;;5013868;28;20347;-71
2021/12/22 05:53:12;;;;;;;5.15;2.40;;;20.70;44.00;;;;;;5012304;28;20081;-72
2021/12/22 05:55:38;;;;;;;2.97;2.60;;;20.70;43.90;;;;;;5016462;28;20473;-72
2021/12/22 05:58:03;;;;;;;5.55;2.40;;;20.70;43.90;;;;;;5015354;28;20124;-73
2021/12/22 06:00:29;;;;;;;3.95;2.70;;;20.70;43.90;;;;;;5009901;28;20068;-72
2021/12/22 06:02:55;;;;;;;3.90;2.60;;;20.70;43.80;;;;;;4999451;28;20037;-72
2021/12/22 06:05:21;;;;;;;3.55;2.50;;;20.70;43.90;;;;;;5011173;28;20052;-72
2021/12/22 06:07:46;;;;;;;4.30;2.50;;;20.70;43.90;;;;;;5015130;28;20053;-71
2021/12/22 06:10:12;;;;;;;3.47;2.63;;;20.70;44.00;;;;;;5011378;28;20065;-71
2021/12/22 06:12:39;;;;;;;3.28;2.53;;;20.70;43.80;;;;;;5016291;28;20049;-72
2021/12/22 06:15:05;;;;;;;4.10;2.65;;;20.70;43.90;;;;;;5012775;28;20041;-73
2021/12/22 06:17:31;;;;;;;3.92;2.42;;;20.70;43.90;;;;;;5014484;28;20041;-71
2021/12/22 06:19:56;;;;;;;3.70;2.83;;;20.70;43.90;;;;;;5015040;28;20038;-70
2021/12/22 06:22:27;;;;;;;3.63;2.40;;;20.60;43.80;;;;;;5015898;28;20128;-72
2021/12/22 06:24:52;;;;;;;3.47;2.60;;;20.70;43.90;;;;;;5013384;28;20041;-73
2021/12/22 06:27:18;;;;;;;4.15;2.90;;;20.70;43.90;;;;;;5011135;28;20775;-70
2021/12/22 06:29:44;;;;;;;3.40;2.47;;;20.70;43.80;;;;;;5015395;28;20041;-72
2021/12/22 06:32:09;;;;;;;4.07;2.70;;;20.70;43.80;;;;;;5015386;28;20128;-71
2021/12/22 06:34:35;;;;;;;3.95;2.50;;;20.60;44.50;;;;;;5011053;28;20049;-70
2021/12/22 06:37:01;;;;;;;3.80;2.80;;;20.70;43.90;;;;;;5012727;28;20054;-73
2021/12/22 06:39:26;;;;;;;3.78;2.65;;;20.70;43.80;;;;;;5018292;28;20048;-73
2021/12/22 06:41:52;;;;;;;3.92;2.88;;;20.70;43.80;;;;;;5019985;28;20057;-73
2021/12/22 06:44:18;;;;;;;4.88;2.97;;;20.70;43.80;;;;;;5014465;28;20046;-73
2021/12/22 06:46:43;;;;;;;4.68;2.80;;;20.70;43.80;;;;;;5018832;28;20033;-73
2021/12/22 06:49:10;;;;;;;3.95;2.60;;;20.70;43.80;;;;;;5014233;28;20099;-69
2021/12/22 06:51:36;;;;;;;4.10;2.80;;;20.70;43.80;;;;;;5016631;28;20057;-71
2021/12/22 06:54:02;;;;;;;3.42;2.60;;;20.70;43.80;;;;;;5014863;28;20057;-72
2021/12/22 06:56:27;;;;;;;3.97;2.67;;;20.70;43.80;;;;;;5016387;28;20045;-71
2021/12/22 06:58:54;;;;;;;3.55;2.60;;;20.70;43.80;;;;;;5018283;28;20041;-73
2021/12/22 07:01:21;;;;;;;3.72;2.90;;;20.70;43.70;;;;;;5013588;28;20041;-72
2021/12/22 07:03:46;;;;;;;4.43;2.55;;;20.70;43.70;;;;;;5017836;28;20057;-68
2021/12/22 07:06:12;;;;;;;4.25;2.90;;;20.70;43.80;;;;;;5013341;28;20037;-72
2021/12/22 07:08:38;;;;;;;4.45;2.80;;;20.70;43.80;;;;;;5015103;28;20042;-72
2021/12/22 07:11:04;;;;;;;3.70;2.83;;;20.60;43.80;;;;;;5012695;28;20116;-72
2021/12/22 07:13:32;;;;;;;3.97;2.92;;;20.70;43.80;;;;;;5017264;28;20113;-70
2021/12/22 07:15:58;;;;;;;4.10;2.60;;;20.70;43.80;;;;;;5017900;28;20064;-72
2021/12/22 07:18:24;;;;;;;7.72;3.03;;;20.70;43.80;;;;;;5016579;28;20492;-74
2021/12/22 07:20:50;;;;;;;3.28;2.70;;;20.70;43.80;;;;;;5019042;28;20405;-72
2021/12/22 07:23:16;;;;;;;4.20;2.75;;;20.70;43.80;;;;;;5014474;28;20030;-72
2021/12/22 07:25:41;;;;;;;5.03;3.00;;;20.70;43.90;;;;;;5022534;28;20041;-72
2021/12/22 07:28:10;;;;;;;4.13;2.97;;;20.80;44.10;;;;;;5020869;28;20428;-71
2021/12/22 07:30:36;;;;;;;;;;;20.70;44.00;;;;;;5021082;28;20558;-75
2021/12/22 07:33:03;;;;;;;6.63;3.20;;;20.70;44.00;;;;;;5031629;28;20396;-75
2021/12/22 07:35:42;;;;;;;9.25;3.00;;;20.80;44.10;;;;;;5014505;28;20536;-74
2021/12/22 07:38:34;;;;;;;5.30;3.30;;;20.80;44.20;;;;;;5016920;28;20041;-74
2021/12/22 07:41:00;;;;;;;8.07;3.33;;;20.80;44.30;;;;;;5011755;28;20176;-72
2021/12/22 07:43:27;;;;;;;4.55;2.95;;;20.80;44.30;;;;;;5016443;28;20037;-74
2021/12/22 07:45:53;;;;;;;5.28;3.47;;;20.80;44.30;;;;;;5000574;28;20568;-76
2021/12/22 07:48:19;;;;;;;6.18;3.55;;;20.80;44.40;;;;;;5016669;28;20037;-78
2021/12/22 07:50:45;;;;;;;11.00;3.00;;;20.80;44.60;;;;;;5023618;28;20456;-76
2021/12/22 07:53:11;;;;;;;6.30;3.33;;;20.80;44.60;;;;;;5016718;28;20095;-79
2021/12/22 07:55:37;;;;;;;7.85;3.47;;;20.80;44.50;;;;;;5015264;28;20046;-75
2021/12/22 07:58:03;;;;;;;7.35;3.03;;;20.90;44.50;;;;;;5011845;28;20037;-71
2021/12/22 08:00:29;;;;;;;6.07;3.50;;;20.90;44.50;;;;;;5012302;28;20152;-77
2021/12/22 08:02:55;;;;;;;5.40;3.28;;;20.90;44.50;;;;;;5014608;28;20100;-73
2021/12/22 08:05:21;;;;;;;8.55;3.38;;;20.90;44.50;;;;;;5019202;28;20034;-74
2021/12/22 08:07:46;;;;;;;5.70;3.20;;;20.90;44.40;;;;;;5014954;28;20492;-74
2021/12/22 08:10:12;;;;;;;6.72;3.28;;;21.00;44.40;;;;;;5016287;28;20053;-73
2021/12/22 08:12:38;;;;;;;5.95;3.55;;;21.00;44.40;;;;;;5025670;28;20058;-70
2021/12/22 08:15:07;;;;;;;5.38;3.33;;;21.00;44.40;;;;;;5006691;28;20060;-67
2021/12/22 08:17:34;;;;;;;5.05;3.38;;;21.10;44.40;;;;;;5019979;28;20037;-71
2021/12/22 08:20:04;;;;;;;5.78;3.67;;;21.20;44.20;;;;;;5015722;28;20084;-75
2021/12/22 08:22:30;;;;;;;6.63;3.60;;;21.20;44.00;;;;;;5028894;28;20038;-72
2021/12/22 08:24:55;;;;;;;4.20;3.47;;;21.20;43.90;;;;;;5008509;28;20397;-71
2021/12/22 08:27:21;;;;;;;8.23;3.33;;;21.30;43.80;;;;;;5012471;28;20045;-73
2021/12/22 08:29:47;;;;;;;8.15;3.15;;;21.30;43.90;;;;;;5013410;28;20065;-74
2021/12/22 08:32:14;;;;;;;7.50;3.20;;;21.30;43.80;;;;;;5016852;28;20113;-74
2021/12/22 08:34:41;;;;;;;5.80;3.22;;;21.30;43.80;;;;;;5017397;28;20067;-74
2021/12/22 08:39:53;;;;;;;5.45;3.17;;;21.40;43.80;;;;;;5012991;28;20822;-74
2021/12/22 08:42:20;;;;;;;8.20;3.33;;;21.40;43.60;;;;;;5014967;28;20045;-75
2021/12/22 08:44:47;;;;;;;8.27;3.65;;;21.40;43.60;;;;;;5035127;28;20051;-75
2021/12/22 08:47:14;;;;;;;5.55;3.50;;;21.30;43.60;;;;;;5016415;28;20052;-74
2021/12/22 08:49:44;;;;;;;6.82;3.35;;;21.40;43.80;;;;;;5015030;28;20046;-76
2021/12/22 08:52:09;;;;;;;11.50;3.92;;;21.30;43.70;;;;;;5016396;28;20046;-73
2021/12/22 08:54:35;;;;;;;6.25;3.53;;;21.30;43.80;;;;;;5014041;28;20041;-72
2021/12/22 08:57:01;;;;;;;8.30;3.70;;;21.30;43.80;;;;;;5020408;28;20484;-73
2021/12/22 08:59:27;;;;;;;7.45;3.75;;;21.30;43.80;;;;;;5016096;28;20058;-68
2021/12/22 09:01:53;;;;;;;10.43;4.38;;;21.30;43.80;;;;;;5014012;28;20038;-71
2021/12/22 09:04:20;;;;;;;7.55;3.65;;;21.30;44.00;;;;;;5015708;28;20053;-76
2021/12/22 09:06:47;;;;;;;13.77;4.00;;;21.30;44.10;;;;;;5014582;28;20045;-79
2021/12/22 09:09:13;;;;;;;10.95;4.10;;;21.30;44.20;;;;;;5018915;28;20037;-80
2021/12/22 09:11:40;;;;;;;8.30;4.30;;;21.30;44.40;;;;;;5018312;28;20087;-77
2021/12/22 09:14:06;;;;;;;16.00;4.30;;;21.40;44.40;;;;;;5025004;28;20062;-78
2021/12/22 09:16:33;;;;;;;11.27;3.97;;;21.30;44.40;;;;;;5018530;28;20038;-75
2021/12/22 09:18:59;;;;;;;10.10;3.80;;;21.30;44.50;;;;;;5021323;28;20045;-75
2021/12/22 09:21:24;;;;;;;14.38;3.95;;;21.30;44.50;;;;;;5023371;28;20057;-70
2021/12/22 09:23:50;;;;;;;6.22;3.90;;;21.30;45.30;;;;;;5025126;28;20094;-74
2021/12/22 09:26:16;;;;;;;6.57;4.00;;;21.30;44.50;;;;;;5026577;28;20049;-75
2021/12/22 09:28:42;;;;;;;9.70;3.90;;;21.30;44.50;;;;;;5018905;28;20395;-75
2021/12/22 09:31:09;;;;;;;11.18;3.92;;;21.30;44.60;;;;;;5018614;28;20088;-76
2021/12/22 09:33:36;;;;;;;8.65;4.50;;;21.40;44.60;;;;;;5011793;28;20129;-70
2021/12/22 09:36:04;;;;;;;7.57;3.70;;;21.40;44.60;;;;;;5010785;28;20177;-76
2021/12/22 09:38:30;;;;;;;6.68;3.85;;;21.40;44.70;;;;;;5013630;28;20141;-76
2021/12/22 09:40:56;;;;;;;9.75;3.80;;;21.40;44.70;;;;;;5015321;28;20168;-69
2021/12/22 09:43:21;;;;;;;7.50;3.92;;;21.30;44.60;;;;;;5020096;28;20110;-77
2021/12/22 09:45:52;;;;;;;11.52;4.40;;;21.40;44.70;;;;;;5016071;28;20034;-74
2021/12/22 09:48:30;;;;;;;10.50;4.30;;;21.30;44.70;;;;;;5013792;28;20046;-74
2021/12/22 09:52:17;;;;;;;6.53;4.22;;;21.40;44.70;;;;;;5014752;28;20132;-73
2021/12/22 09:53:45;;;;;;;10.85;3.90;;;21.40;44.70;;;;;;5018696;28;20206;-71
2021/12/22 09:56:17;;;;;;;9.75;4.13;;;21.40;44.80;;;;;;5018648;28;20053;-71
2021/12/22 09:58:45;;;;;;;9.48;3.78;;;21.40;44.80;;;;;;5021054;28;20040;-74
2021/12/22 10:01:13;;;;;;;10.85;4.40;;;21.40;44.80;;;;;;5030232;28;20042;-78
2021/12/22 10:03:39;;;;;;;7.13;3.87;;;21.40;44.80;;;;;;5017331;28;20038;-76
2021/12/22 10:06:05;;;;;;;8.18;4.35;;;21.40;44.80;;;;;;5025354;28;20056;-75
2021/12/22 10:08:31;;;;;;;8.73;4.15;;;21.40;44.70;;;;;;5017098;28;20053;-74
2021/12/22 10:11:00;;;;;;;8.82;3.97;;;21.40;44.70;;;;;;5039764;28;20034;-73
2021/12/22 10:13:27;;;;;;;10.38;3.97;;;21.40;44.80;;;;;;5021986;28;20053;-78
2021/12/22 10:15:53;;;;;;;9.35;4.10;;;21.40;44.80;;;;;;5026979;28;20139;-75
2021/12/22 10:18:21;;;;;;;10.85;4.40;;;21.40;44.80;;;;;;5028976;28;20484;-74
2021/12/22 10:20:49;;;;;;;11.32;4.13;;;21.40;44.80;;;;;;5031003;28;20080;-78
2021/12/22 10:23:20;;;;;;;6.93;4.10;;;21.40;44.90;;;;;;5029233;28;20133;-77
2021/12/22 10:26:02;;;;;;;10.35;4.32;;;21.40;44.90;;;;;;5028418;28;20039;-80
2021/12/22 10:28:30;;;;;;;12.32;4.43;;;21.40;44.90;;;;;;5024435;28;20049;-79
2021/12/22 10:31:01;;;;;;;7.50;4.05;;;21.40;44.70;;;;;;5024994;28;20087;-79
2021/12/22 10:33:31;;;;;;;7.00;4.10;;;21.40;44.60;;;;;;5025014;28;20079;-79
2021/12/22 10:36:00;;;;;;;8.00;3.85;;;21.40;44.60;;;;;;5022179;28;20037;-76
2021/12/22 10:38:28;;;;;;;6.63;4.00;;;21.30;44.40;;;;;;5021725;28;20048;-77
2021/12/22 10:41:01;;;;;;;6.15;4.00;;;21.40;44.60;;;;;;5020995;28;20107;-76
2021/12/22 10:43:33;;;;;;;8.52;4.10;;;21.40;44.40;;;;;;5022944;28;20053;-76
2021/12/22 10:46:01;;;;;;;7.80;4.10;;;21.40;44.40;;;;;;5022866;28;20128;-77
2021/12/22 10:51:20;;;;;;;11.77;4.22;;;21.30;44.20;;;;;;5020943;28;20044;-75
2021/12/22 10:53:50;;;;;;;7.50;3.70;;;21.40;44.30;;;;;;5023473;28;20042;-75
2021/12/22 10:56:41;;;;;;;8.07;4.38;;;21.40;44.30;;;;;;5017170;28;20413;-75
2021/12/22 10:59:15;;;;;;;8.02;3.53;;;21.30;44.10;;;;;;5024030;28;20509;-73
2021/12/22 11:01:59;;;;;;;7.43;3.97;;;21.40;44.20;;;;;;5025073;28;20038;-74
2021/12/22 11:04:31;;;;;;;5.47;3.58;;;21.40;44.10;;;;;;5023072;28;20053;-74
2021/12/22 11:07:08;;;;;;;7.78;4.00;;;21.40;44.10;;;;;;5022774;28;20107;-75
2021/12/22 11:09:36;;;;;;;5.53;3.42;;;21.40;44.00;;;;;;5022616;28;20068;-75
2021/12/22 11:12:04;;;;;;;5.53;3.70;;;21.30;44.00;;;;;;5024868;28;20441;-75
2021/12/22 11:14:37;;;;;;;6.97;3.47;;;21.40;44.10;;;;;;5025506;28;20064;-75
2021/12/22 11:17:14;;;;;;;5.18;3.58;;;21.30;44.00;;;;;;5020716;28;20045;-74
2021/12/22 11:19:53;;;;;;;6.72;3.78;;;21.30;43.90;;;;;;5023967;28;20730;-75
2021/12/22 11:22:24;;;;;;;7.45;3.88;;;21.30;43.80;;;;;;5021122;28;20057;-74
2021/12/22 11:24:52;;;;;;;10.18;3.90;;;21.30;43.90;;;;;;5017475;28;20040;-75
2021/12/22 11:27:23;;;;;;;6.07;3.95;;;21.30;43.90;;;;;;5020775;28;20080;-74
2021/12/22 11:29:54;;;;;;;9.85;3.67;;;21.30;43.90;;;;;;5023046;28;20376;-76
2021/12/22 11:32:21;;;;;;;8.40;4.18;;;21.30;43.90;;;;;;5024937;28;20066;-76
2021/12/22 11:34:50;;;;;;;9.35;3.97;;;21.30;43.90;;;;;;5000093;28;20068;-74
2021/12/22 11:37:17;;;;;;;6.18;3.53;;;21.30;43.90;;;;;;5023029;28;20073;-74
2021/12/22 11:39:44;;;;;;;6.85;3.78;;;21.40;43.90;;;;;;5019378;28;20053;-75
2021/12/22 11:42:13;;;;;;;7.30;3.47;;;21.40;43.90;;;;;;5021826;28;20042;-77
2021/12/22 11:44:40;;;;;;;8.82;3.83;;;21.40;43.90;;;;;;5026141;28;20262;-76
2021/12/22 11:47:09;;;;;;;9.13;3.63;;;21.40;43.80;;;;;;5023813;28;20034;-76
2021/12/22 11:49:37;;;;;;;8.48;3.95;;;21.40;43.80;;;;;;5026807;28;20497;-77
2021/12/22 11:52:29;;;;;;;5.45;3.40;;;21.30;43.60;;;;;;5024327;28;20068;-74
2021/12/22 11:55:08;;;;;;;9.20;4.05;;;21.40;43.50;;;;;;5025577;28;20549;-77
2021/12/22 11:57:35;;;;;;;7.30;3.58;;;21.40;43.50;;;;;;5023220;28;20175;-76
2021/12/22 12:00:21;;;;;;;12.48;3.85;;;21.30;43.60;;;;;;5025803;28;20026;-77
2021/12/22 12:02:47;;;;;;;6.80;3.67;;;21.30;43.50;;;;;;5026677;28;20042;-78
2021/12/22 12:05:26;;;;;;;7.13;3.63;;;21.30;43.60;;;;;;5021760;28;20034;-77
2021/12/22 12:08:07;;;;;;;6.10;3.53;;;21.30;43.60;;;;;;5019601;28;20045;-70
2021/12/22 12:10:41;;;;;;;5.80;3.58;;;21.30;43.60;;;;;;5018294;28;20088;-68
2021/12/22 12:13:36;;;;;;;9.48;3.58;;;21.30;43.70;;;;;;5015781;28;20054;-67
2021/12/22 12:22:33;;;;;;;6.43;3.47;;;21.30;43.90;;;;;;5017080;28;20045;-66
2021/12/22 12:25:12;;;;;;;8.75;3.95;;;21.30;44.10;;;;;;5014425;28;20692;-79
2021/12/22 12:27:43;;;;;;;4.70;3.42;;;21.30;44.10;;;;;;5015636;28;20685;-67
2021/12/22 12:30:27;;;;;;;9.52;3.70;;;21.30;44.20;;;;;;5015359;28;20045;-67
2021/12/22 12:33:01;;;;;;;6.60;3.40;;;21.30;44.20;;;;;;5019321;28;20050;-70
2021/12/22 12:35:29;;;;;;;8.00;3.38;;;21.20;44.20;;;;;;5000476;28;20079;-76
2021/12/22 12:38:17;;;;;;;6.85;3.85;;;21.20;44.20;;;;;;5023423;28;20041;-75
2021/12/22 12:40:54;;;;;;;7.10;3.47;;;21.20;44.30;;;;;;5020016;28;20053;-73
2021/12/22 12:43:48;;;;;;;10.10;3.40;;;21.20;44.40;;;;;;5022844;28;20088;-69
2021/12/22 12:46:29;;;;;;;8.68;3.92;;;21.20;44.50;;;;;;5013352;28;20058;-77
2021/12/22 12:49:07;;;;;;;7.00;3.03;;;21.20;44.40;;;;;;5022032;28;20768;-79
2021/12/22 12:51:41;;;;;;;4.75;2.97;;;21.20;44.40;;;;;;5025357;28;20049;-77
2021/12/22 12:54:16;;;;;;;5.70;3.38;;;21.20;44.40;;;;;;5023505;28;20132;-76
2021/12/22 12:56:46;;;;;;;6.45;3.53;;;21.20;44.40;;;;;;5021917;28;20152;-80
2021/12/22 12:59:13;;;;;;;6.28;3.75;;;21.20;44.40;;;;;;5021801;28;20068;-78
2021/12/22 13:01:49;;;;;;;5.25;3.33;;;21.20;44.40;;;;;;5016636;28;20060;-76
2021/12/22 13:04:23;;;;;;;5.35;3.22;;;21.20;44.40;;;;;;5024381;28;20072;-80
2021/12/22 13:07:05;;;;;;;8.50;3.30;;;21.20;44.40;;;;;;5020467;28;20061;-72
2021/12/22 13:09:36;;;;;;;7.00;3.17;;;21.20;44.50;;;;;;5017028;28;20755;-73
2021/12/22 13:12:11;;;;;;;7.50;3.50;;;21.20;44.50;;;;;;5026745;28;20080;-76
2021/12/22 13:17:40;;;;;;;5.65;3.53;;;21.10;44.60;;;;;;5013028;28;20053;-74
2021/12/22 13:20:09;;;;;;;6.15;3.50;;;21.10;44.60;;;;;;5039547;28;20050;-78